sensor_id;sensor_type;location;lat;lon;timestamp;temperature;humidity
71082;SHT31;58740;50.672;18.690;2023-02-14T00:01:28;4.24;81.59
71082;SHT31;58740;50.672;18.690;2023-02-14T00:03:56;4.24;81.69
71082;SHT31;58740;50.672;18.690;2023-02-14T00:06:27;4.24;81.74
71082;SHT31;58740;50.672;18.690;2023-02-14T00:09:01;4.25;81.82
71082;SHT31;58740;50.672;18.690;2023-02-14T00:11:29;4.28;81.82
71082;SHT31;58740;50.672;18.690;2023-02-14T00:13:58;4.30;81.82
71082;SHT31;58740;50.672;18.690;2023-02-14T00:16:45;4.32;81.80
71082;SHT31;58740;50.672;18.690;2023-02-14T00:19:13;4.33;81.80
71082;SHT31;58740;50.672;18.690;2023-02-14T00:21:43;4.31;81.85
71082;SHT31;58740;50.672;18.690;2023-02-14T00:24:13;4.30;81.89
71082;SHT31;58740;50.672;18.690;2023-02-14T00:26:46;4.29;81.90
71082;SHT31;58740;50.672;18.690;2023-02-14T00:29:15;4.31;82.00
71082;SHT31;58740;50.672;18.690;2023-02-14T00:31:55;4.32;81.97
71082;SHT31;58740;50.672;18.690;2023-02-14T00:34:24;4.32;81.93
71082;SHT31;58740;50.672;18.690;2023-02-14T00:36:52;4.29;81.90
71082;SHT31;58740;50.672;18.690;2023-02-14T00:39:20;4.26;81.99
71082;SHT31;58740;50.672;18.690;2023-02-14T00:41:47;4.23;82.01
71082;SHT31;58740;50.672;18.690;2023-02-14T00:44:15;4.22;82.05
71082;SHT31;58740;50.672;18.690;2023-02-14T00:46:43;4.20;82.13
71082;SHT31;58740;50.672;18.690;2023-02-14T00:49:11;4.20;82.11
71082;SHT31;58740;50.672;18.690;2023-02-14T00:51:39;4.21;82.16
71082;SHT31;58740;50.672;18.690;2023-02-14T00:54:07;4.21;82.18
71082;SHT31;58740;50.672;18.690;2023-02-14T00:56:34;4.21;82.12
71082;SHT31;58740;50.672;18.690;2023-02-14T00:59:02;4.19;82.08
71082;SHT31;58740;50.672;18.690;2023-02-14T01:01:30;4.16;82.14
71082;SHT31;58740;50.672;18.690;2023-02-14T01:03:58;4.15;82.20
71082;SHT31;58740;50.672;18.690;2023-02-14T01:06:26;4.13;82.13
71082;SHT31;58740;50.672;18.690;2023-02-14T01:08:54;4.11;82.20
71082;SHT31;58740;50.672;18.690;2023-02-14T01:11:22;4.13;82.20
71082;SHT31;58740;50.672;18.690;2023-02-14T01:13:52;4.15;82.19
71082;SHT31;58740;50.672;18.690;2023-02-14T01:16:23;4.16;82.11
71082;SHT31;58740;50.672;18.690;2023-02-14T01:18:53;4.17;82.11
71082;SHT31;58740;50.672;18.690;2023-02-14T01:21:23;4.15;82.03
71082;SHT31;58740;50.672;18.690;2023-02-14T01:23:58;4.12;82.05
71082;SHT31;58740;50.672;18.690;2023-02-14T01:26:29;4.11;82.05
71082;SHT31;58740;50.672;18.690;2023-02-14T01:28:58;4.11;82.07
71082;SHT31;58740;50.672;18.690;2023-02-14T01:31:27;4.11;82.02
71082;SHT31;58740;50.672;18.690;2023-02-14T01:33:58;4.11;82.05
71082;SHT31;58740;50.672;18.690;2023-02-14T01:36:27;4.13;81.99
71082;SHT31;58740;50.672;18.690;2023-02-14T01:39:03;4.12;81.95
71082;SHT31;58740;50.672;18.690;2023-02-14T01:41:35;4.12;82.00
71082;SHT31;58740;50.672;18.690;2023-02-14T01:46:42;4.08;81.99
71082;SHT31;58740;50.672;18.690;2023-02-14T01:49:16;4.05;81.97
71082;SHT31;58740;50.672;18.690;2023-02-14T01:51:49;4.02;81.99
71082;SHT31;58740;50.672;18.690;2023-02-14T01:54:23;4.02;82.05
71082;SHT31;58740;50.672;18.690;2023-02-14T01:56:59;4.00;82.00
71082;SHT31;58740;50.672;18.690;2023-02-14T01:59:36;4.02;82.10
71082;SHT31;58740;50.672;18.690;2023-02-14T02:02:12;4.05;82.02
71082;SHT31;58740;50.672;18.690;2023-02-14T02:04:41;4.07;81.98
71082;SHT31;58740;50.672;18.690;2023-02-14T02:07:14;4.06;81.87
71082;SHT31;58740;50.672;18.690;2023-02-14T02:09:50;4.04;81.83
71082;SHT31;58740;50.672;18.690;2023-02-14T02:12:23;4.04;81.92
71082;SHT31;58740;50.672;18.690;2023-02-14T02:14:52;4.05;81.91
71082;SHT31;58740;50.672;18.690;2023-02-14T02:23:43;4.11;81.80
71082;SHT31;58740;50.672;18.690;2023-02-14T02:29:32;4.11;81.78
71082;SHT31;58740;50.672;18.690;2023-02-14T02:44:20;4.06;81.78
71082;SHT31;58740;50.672;18.690;2023-02-14T02:47:17;4.07;81.73
71082;SHT31;58740;50.672;18.690;2023-02-14T02:56:34;4.02;81.75
71082;SHT31;58740;50.672;18.690;2023-02-14T03:04:49;4.00;81.71
71082;SHT31;58740;50.672;18.690;2023-02-14T03:07:30;4.03;81.70
71082;SHT31;58740;50.672;18.690;2023-02-14T03:19:24;3.99;81.45
71082;SHT31;58740;50.672;18.690;2023-02-14T03:29:00;3.97;81.57
71082;SHT31;58740;50.672;18.690;2023-02-14T03:37:56;4.02;81.50
71082;SHT31;58740;50.672;18.690;2023-02-14T03:40:44;4.00;81.40
71082;SHT31;58740;50.672;18.690;2023-02-14T03:43:28;3.99;81.40
71082;SHT31;58740;50.672;18.690;2023-02-14T03:46:12;3.97;81.44
71082;SHT31;58740;50.672;18.690;2023-02-14T03:49:11;3.97;81.44
71082;SHT31;58740;50.672;18.690;2023-02-14T03:51:46;3.97;81.42
71082;SHT31;58740;50.672;18.690;2023-02-14T03:54:17;3.98;81.47
71082;SHT31;58740;50.672;18.690;2023-02-14T03:56:52;4.01;81.50
71082;SHT31;58740;50.672;18.690;2023-02-14T03:59:30;4.03;81.31
71082;SHT31;58740;50.672;18.690;2023-02-14T04:02:00;4.03;81.32
71082;SHT31;58740;50.672;18.690;2023-02-14T04:04:38;4.00;81.36
71082;SHT31;58740;50.672;18.690;2023-02-14T04:07:12;3.98;81.27
71082;SHT31;58740;50.672;18.690;2023-02-14T04:09:44;3.97;81.38
71082;SHT31;58740;50.672;18.690;2023-02-14T04:12:12;3.96;81.32
71082;SHT31;58740;50.672;18.690;2023-02-14T04:14:46;3.97;81.30
71082;SHT31;58740;50.672;18.690;2023-02-14T04:17:13;3.98;81.35
71082;SHT31;58740;50.672;18.690;2023-02-14T04:20:00;3.99;81.38
71082;SHT31;58740;50.672;18.690;2023-02-14T04:22:27;4.02;81.30
71082;SHT31;58740;50.672;18.690;2023-02-14T04:24:55;4.02;81.29
71082;SHT31;58740;50.672;18.690;2023-02-14T04:27:23;4.00;81.21
71082;SHT31;58740;50.672;18.690;2023-02-14T04:29:50;3.99;81.27
71082;SHT31;58740;50.672;18.690;2023-02-14T04:32:19;3.99;81.23
71082;SHT31;58740;50.672;18.690;2023-02-14T04:34:48;3.98;81.19
71082;SHT31;58740;50.672;18.690;2023-02-14T04:37:17;3.99;81.20
71082;SHT31;58740;50.672;18.690;2023-02-14T04:39:46;4.01;81.17
71082;SHT31;58740;50.672;18.690;2023-02-14T04:42:14;4.02;81.10
71082;SHT31;58740;50.672;18.690;2023-02-14T04:44:42;4.01;81.14
71082;SHT31;58740;50.672;18.690;2023-02-14T04:47:10;4.00;81.10
71082;SHT31;58740;50.672;18.690;2023-02-14T04:49:38;3.98;81.08
71082;SHT31;58740;50.672;18.690;2023-02-14T04:52:05;3.95;81.07
71082;SHT31;58740;50.672;18.690;2023-02-14T04:54:33;3.92;81.11
71082;SHT31;58740;50.672;18.690;2023-02-14T04:57:01;3.91;81.19
71082;SHT31;58740;50.672;18.690;2023-02-14T04:59:29;3.90;81.21
71082;SHT31;58740;50.672;18.690;2023-02-14T05:01:57;3.91;81.18
71082;SHT31;58740;50.672;18.690;2023-02-14T05:04:25;3.92;81.19
71082;SHT31;58740;50.672;18.690;2023-02-14T05:06:53;3.92;81.17
71082;SHT31;58740;50.672;18.690;2023-02-14T05:09:21;3.93;81.13
71082;SHT31;58740;50.672;18.690;2023-02-14T05:11:48;3.91;81.10
71082;SHT31;58740;50.672;18.690;2023-02-14T05:14:16;3.90;81.10
71082;SHT31;58740;50.672;18.690;2023-02-14T05:16:44;3.89;81.18
71082;SHT31;58740;50.672;18.690;2023-02-14T05:19:11;3.88;81.14
71082;SHT31;58740;50.672;18.690;2023-02-14T05:21:39;3.87;81.18
71082;SHT31;58740;50.672;18.690;2023-02-14T05:24:07;3.87;81.19
71082;SHT31;58740;50.672;18.690;2023-02-14T05:26:35;3.90;81.19
71082;SHT31;58740;50.672;18.690;2023-02-14T05:29:03;3.92;81.10
71082;SHT31;58740;50.672;18.690;2023-02-14T05:31:31;3.93;81.07
71082;SHT31;58740;50.672;18.690;2023-02-14T05:33:59;3.93;81.11
71082;SHT31;58740;50.672;18.690;2023-02-14T05:36:27;3.94;81.06
71082;SHT31;58740;50.672;18.690;2023-02-14T05:38:55;3.93;81.09
71082;SHT31;58740;50.672;18.690;2023-02-14T05:41:22;3.93;81.03
71082;SHT31;58740;50.672;18.690;2023-02-14T05:43:50;3.93;80.98
71082;SHT31;58740;50.672;18.690;2023-02-14T05:46:18;3.93;81.07
71082;SHT31;58740;50.672;18.690;2023-02-14T05:48:46;3.96;81.03
71082;SHT31;58740;50.672;18.690;2023-02-14T05:51:14;3.96;80.99
71082;SHT31;58740;50.672;18.690;2023-02-14T05:53:42;3.95;81.00
71082;SHT31;58740;50.672;18.690;2023-02-14T05:56:10;3.94;81.03
71082;SHT31;58740;50.672;18.690;2023-02-14T05:58:38;3.93;81.03
71082;SHT31;58740;50.672;18.690;2023-02-14T06:01:05;3.92;81.04
71082;SHT31;58740;50.672;18.690;2023-02-14T06:03:33;3.90;81.10
71082;SHT31;58740;50.672;18.690;2023-02-14T06:06:01;3.93;81.09
71082;SHT31;58740;50.672;18.690;2023-02-14T06:08:29;3.96;81.05
71082;SHT31;58740;50.672;18.690;2023-02-14T06:10:57;3.97;80.93
71082;SHT31;58740;50.672;18.690;2023-02-14T06:13:25;3.94;80.86
71082;SHT31;58740;50.672;18.690;2023-02-14T06:15:53;3.93;80.90
71082;SHT31;58740;50.672;18.690;2023-02-14T06:18:21;3.91;80.97
71082;SHT31;58740;50.672;18.690;2023-02-14T06:20:51;3.91;81.02
71082;SHT31;58740;50.672;18.690;2023-02-14T06:23:20;3.92;81.04
71082;SHT31;58740;50.672;18.690;2023-02-14T06:25:47;3.91;80.95
71082;SHT31;58740;50.672;18.690;2023-02-14T06:28:15;3.91;81.01
71082;SHT31;58740;50.672;18.690;2023-02-14T06:30:44;3.92;80.99
71082;SHT31;58740;50.672;18.690;2023-02-14T06:33:13;3.92;81.07
71082;SHT31;58740;50.672;18.690;2023-02-14T06:35:41;3.94;81.10
71082;SHT31;58740;50.672;18.690;2023-02-14T06:38:09;3.95;81.07
71082;SHT31;58740;50.672;18.690;2023-02-14T06:40:36;3.95;81.05
71082;SHT31;58740;50.672;18.690;2023-02-14T06:43:04;3.94;81.03
71082;SHT31;58740;50.672;18.690;2023-02-14T06:45:32;3.95;81.02
71082;SHT31;58740;50.672;18.690;2023-02-14T06:48:00;3.97;81.01
71082;SHT31;58740;50.672;18.690;2023-02-14T06:50:28;4.00;81.02
71082;SHT31;58740;50.672;18.690;2023-02-14T06:52:56;4.03;81.00
71082;SHT31;58740;50.672;18.690;2023-02-14T06:55:23;4.07;80.90
71082;SHT31;58740;50.672;18.690;2023-02-14T06:57:51;4.07;80.89
71082;SHT31;58740;50.672;18.690;2023-02-14T07:00:19;4.07;80.91
71082;SHT31;58740;50.672;18.690;2023-02-14T07:02:48;4.07;80.90
71082;SHT31;58740;50.672;18.690;2023-02-14T07:05:16;4.06;80.90
71082;SHT31;58740;50.672;18.690;2023-02-14T07:07:45;4.04;80.91
71082;SHT31;58740;50.672;18.690;2023-02-14T07:10:13;4.04;80.91
71082;SHT31;58740;50.672;18.690;2023-02-14T07:12:42;4.06;80.87
71082;SHT31;58740;50.672;18.690;2023-02-14T07:15:10;4.07;80.83
71082;SHT31;58740;50.672;18.690;2023-02-14T07:17:41;4.08;80.86
71082;SHT31;58740;50.672;18.690;2023-02-14T07:20:09;4.08;80.90
71082;SHT31;58740;50.672;18.690;2023-02-14T07:22:39;4.08;80.83
71082;SHT31;58740;50.672;18.690;2023-02-14T07:25:07;4.08;80.81
71082;SHT31;58740;50.672;18.690;2023-02-14T07:27:35;4.07;80.80
71082;SHT31;58740;50.672;18.690;2023-02-14T07:30:04;4.08;80.75
71082;SHT31;58740;50.672;18.690;2023-02-14T07:32:36;4.10;80.79
71082;SHT31;58740;50.672;18.690;2023-02-14T07:35:06;4.12;80.76
71082;SHT31;58740;50.672;18.690;2023-02-14T07:37:35;4.14;80.75
71082;SHT31;58740;50.672;18.690;2023-02-14T07:40:03;4.16;80.70
71082;SHT31;58740;50.672;18.690;2023-02-14T07:42:41;4.16;80.68
71082;SHT31;58740;50.672;18.690;2023-02-14T07:45:10;4.13;80.65
71082;SHT31;58740;50.672;18.690;2023-02-14T07:47:51;4.13;80.77
71082;SHT31;58740;50.672;18.690;2023-02-14T07:50:21;4.14;80.79
71082;SHT31;58740;50.672;18.690;2023-02-14T07:52:49;4.15;80.76
71082;SHT31;58740;50.672;18.690;2023-02-14T07:55:17;4.19;80.80
71082;SHT31;58740;50.672;18.690;2023-02-14T07:57:46;4.23;80.79
71082;SHT31;58740;50.672;18.690;2023-02-14T08:00:16;4.27;80.73
71082;SHT31;58740;50.672;18.690;2023-02-14T08:02:44;4.29;80.73
71082;SHT31;58740;50.672;18.690;2023-02-14T08:05:12;4.33;80.66
71082;SHT31;58740;50.672;18.690;2023-02-14T08:07:41;4.34;80.57
71082;SHT31;58740;50.672;18.690;2023-02-14T08:10:10;4.31;80.59
71082;SHT31;58740;50.672;18.690;2023-02-14T08:12:39;4.33;80.61
71082;SHT31;58740;50.672;18.690;2023-02-14T08:15:30;4.38;80.64
71082;SHT31;58740;50.672;18.690;2023-02-14T08:18:20;4.42;80.60
71082;SHT31;58740;50.672;18.690;2023-02-14T08:20:51;4.47;80.56
71082;SHT31;58740;50.672;18.690;2023-02-14T08:23:20;4.48;80.41
71082;SHT31;58740;50.672;18.690;2023-02-14T08:25:49;4.50;80.43
71082;SHT31;58740;50.672;18.690;2023-02-14T08:28:19;4.51;80.45
71082;SHT31;58740;50.672;18.690;2023-02-14T08:30:50;4.52;80.41
71082;SHT31;58740;50.672;18.690;2023-02-14T08:33:19;4.53;80.41
71082;SHT31;58740;50.672;18.690;2023-02-14T08:35:49;4.54;80.38
71082;SHT31;58740;50.672;18.690;2023-02-14T08:38:18;4.57;80.41
71082;SHT31;58740;50.672;18.690;2023-02-14T08:40:46;4.59;80.34
71082;SHT31;58740;50.672;18.690;2023-02-14T08:43:14;4.60;80.19
71082;SHT31;58740;50.672;18.690;2023-02-14T08:45:42;4.62;80.21
71082;SHT31;58740;50.672;18.690;2023-02-14T08:48:11;4.66;80.07
71082;SHT31;58740;50.672;18.690;2023-02-14T08:50:39;4.66;80.06
71082;SHT31;58740;50.672;18.690;2023-02-14T08:53:08;4.69;80.19
71082;SHT31;58740;50.672;18.690;2023-02-14T08:55:39;4.70;80.22
71082;SHT31;58740;50.672;18.690;2023-02-14T08:58:07;4.72;80.24
71082;SHT31;58740;50.672;18.690;2023-02-14T09:00:35;4.73;80.05
71082;SHT31;58740;50.672;18.690;2023-02-14T09:03:03;4.73;80.00
71082;SHT31;58740;50.672;18.690;2023-02-14T09:05:32;4.74;80.08
71082;SHT31;58740;50.672;18.690;2023-02-14T09:08:01;4.78;80.10
71082;SHT31;58740;50.672;18.690;2023-02-14T09:10:30;4.81;80.10
71082;SHT31;58740;50.672;18.690;2023-02-14T09:12:57;4.85;80.12
71082;SHT31;58740;50.672;18.690;2023-02-14T09:15:25;4.90;80.17
71082;SHT31;58740;50.672;18.690;2023-02-14T09:17:53;4.90;79.89
71082;SHT31;58740;50.672;18.690;2023-02-14T09:20:21;4.89;79.87
71082;SHT31;58740;50.672;18.690;2023-02-14T09:22:49;4.92;79.98
71082;SHT31;58740;50.672;18.690;2023-02-14T09:25:16;4.97;79.98
71082;SHT31;58740;50.672;18.690;2023-02-14T09:27:44;5.03;79.94
71082;SHT31;58740;50.672;18.690;2023-02-14T09:30:12;5.06;79.75
71082;SHT31;58740;50.672;18.690;2023-02-14T09:32:41;5.05;79.70
71082;SHT31;58740;50.672;18.690;2023-02-14T09:35:09;5.05;79.69
71082;SHT31;58740;50.672;18.690;2023-02-14T09:37:55;5.05;79.69
71082;SHT31;58740;50.672;18.690;2023-02-14T09:40:42;5.04;79.70
71082;SHT31;58740;50.672;18.690;2023-02-14T09:43:27;5.07;79.75
71082;SHT31;58740;50.672;18.690;2023-02-14T09:46:10;5.12;79.92
71082;SHT31;58740;50.672;18.690;2023-02-14T09:48:43;5.16;79.82
71082;SHT31;58740;50.672;18.690;2023-02-14T09:51:16;5.22;79.69
71082;SHT31;58740;50.672;18.690;2023-02-14T09:54:11;5.26;79.41
71082;SHT31;58740;50.672;18.690;2023-02-14T09:56:51;5.29;79.04
71082;SHT31;58740;50.672;18.690;2023-02-14T09:59:27;5.30;79.03
71082;SHT31;58740;50.672;18.690;2023-02-14T10:02:23;5.30;78.68
71082;SHT31;58740;50.672;18.690;2023-02-14T10:10:30;5.29;78.30
71082;SHT31;58740;50.672;18.690;2023-02-14T10:13:15;5.31;78.19
71082;SHT31;58740;50.672;18.690;2023-02-14T10:15:56;5.35;78.18
71082;SHT31;58740;50.672;18.690;2023-02-14T10:18:40;5.38;78.04
71082;SHT31;58740;50.672;18.690;2023-02-14T10:21:38;5.39;77.83
71082;SHT31;58740;50.672;18.690;2023-02-14T10:24:13;5.41;77.58
71082;SHT31;58740;50.672;18.690;2023-02-14T10:26:48;5.41;77.75
71082;SHT31;58740;50.672;18.690;2023-02-14T10:29:17;5.41;77.07
71082;SHT31;58740;50.672;18.690;2023-02-14T10:31:49;5.39;76.77
71082;SHT31;58740;50.672;18.690;2023-02-14T10:34:43;5.41;76.97
71082;SHT31;58740;50.672;18.690;2023-02-14T10:37:22;5.43;76.79
71082;SHT31;58740;50.672;18.690;2023-02-14T10:46:12;5.51;76.81
71082;SHT31;58740;50.672;18.690;2023-02-14T10:48:59;5.50;76.77
71082;SHT31;58740;50.672;18.690;2023-02-14T10:52:14;5.48;76.53
71082;SHT31;58740;50.672;18.690;2023-02-14T10:54:55;5.47;76.62
71082;SHT31;58740;50.672;18.690;2023-02-14T10:57:31;5.48;76.47
71082;SHT31;58740;50.672;18.690;2023-02-14T11:00:05;5.53;76.53
71082;SHT31;58740;50.672;18.690;2023-02-14T11:02:50;5.54;76.53
71082;SHT31;58740;50.672;18.690;2023-02-14T11:05:27;5.55;76.43
71082;SHT31;58740;50.672;18.690;2023-02-14T11:14:19;5.53;76.29
71082;SHT31;58740;50.672;18.690;2023-02-14T11:16:51;5.52;76.42
71082;SHT31;58740;50.672;18.690;2023-02-14T11:19:22;5.53;76.39
71082;SHT31;58740;50.672;18.690;2023-02-14T11:21:56;5.53;76.17
71082;SHT31;58740;50.672;18.690;2023-02-14T11:32:08;5.60;76.02
71082;SHT31;58740;50.672;18.690;2023-02-14T11:34:46;5.57;75.99
71082;SHT31;58740;50.672;18.690;2023-02-14T11:37:30;5.55;76.07
71082;SHT31;58740;50.672;18.690;2023-02-14T11:40:05;5.54;76.16
71082;SHT31;58740;50.672;18.690;2023-02-14T11:42:41;5.49;76.10
71082;SHT31;58740;50.672;18.690;2023-02-14T11:45:33;5.46;76.09
71082;SHT31;58740;50.672;18.690;2023-02-14T11:48:25;5.45;76.32
71082;SHT31;58740;50.672;18.690;2023-02-14T11:51:06;5.49;76.31
71082;SHT31;58740;50.672;18.690;2023-02-14T11:53:50;5.53;76.29
71082;SHT31;58740;50.672;18.690;2023-02-14T11:56:22;5.53;76.11
71082;SHT31;58740;50.672;18.690;2023-02-14T11:59:00;5.54;76.15
71082;SHT31;58740;50.672;18.690;2023-02-14T12:01:32;5.54;76.11
71082;SHT31;58740;50.672;18.690;2023-02-14T12:04:05;5.52;75.84
71082;SHT31;58740;50.672;18.690;2023-02-14T12:06:44;5.46;75.43
71082;SHT31;58740;50.672;18.690;2023-02-14T12:11:55;5.46;75.86
71082;SHT31;58740;50.672;18.690;2023-02-14T12:14:32;5.48;75.79
71082;SHT31;58740;50.672;18.690;2023-02-14T12:19:54;5.50;75.61
71082;SHT31;58740;50.672;18.690;2023-02-14T12:22:49;5.51;75.45
71082;SHT31;58740;50.672;18.690;2023-02-14T12:25:39;5.51;75.60
71082;SHT31;58740;50.672;18.690;2023-02-14T12:28:26;5.51;75.44
71082;SHT31;58740;50.672;18.690;2023-02-14T12:31:09;5.53;75.45
71082;SHT31;58740;50.672;18.690;2023-02-14T12:33:39;5.54;75.70
71082;SHT31;58740;50.672;18.690;2023-02-14T12:39:16;5.57;75.34
71082;SHT31;58740;50.672;18.690;2023-02-14T12:42:03;5.58;75.56
71082;SHT31;58740;50.672;18.690;2023-02-14T12:48:23;5.60;75.14
71082;SHT31;58740;50.672;18.690;2023-02-14T12:51:23;5.58;75.16
71082;SHT31;58740;50.672;18.690;2023-02-14T12:56:38;5.62;75.19
71082;SHT31;58740;50.672;18.690;2023-02-14T12:59:28;5.63;74.86
71082;SHT31;58740;50.672;18.690;2023-02-14T13:05:14;5.67;75.01
71082;SHT31;58740;50.672;18.690;2023-02-14T13:26:15;5.71;74.23
71082;SHT31;58740;50.672;18.690;2023-02-14T13:28:52;5.66;74.15
71082;SHT31;58740;50.672;18.690;2023-02-14T13:31:29;5.63;73.95
71082;SHT31;58740;50.672;18.690;2023-02-14T13:34:15;5.62;73.87
71082;SHT31;58740;50.672;18.690;2023-02-14T13:37:01;5.60;74.01
71082;SHT31;58740;50.672;18.690;2023-02-14T13:39:39;5.57;73.85
71082;SHT31;58740;50.672;18.690;2023-02-14T13:42:12;5.57;74.13
71082;SHT31;58740;50.672;18.690;2023-02-14T13:45:01;5.59;74.33
71082;SHT31;58740;50.672;18.690;2023-02-14T13:47:29;5.61;74.36
71082;SHT31;58740;50.672;18.690;2023-02-14T13:49:58;5.60;74.34
71082;SHT31;58740;50.672;18.690;2023-02-14T13:55:15;5.59;74.24
71082;SHT31;58740;50.672;18.690;2023-02-14T13:58:00;5.59;74.01
71082;SHT31;58740;50.672;18.690;2023-02-14T14:00:43;5.59;74.13
71082;SHT31;58740;50.672;18.690;2023-02-14T14:06:04;5.63;74.51
71082;SHT31;58740;50.672;18.690;2023-02-14T14:08:45;5.65;74.17
71082;SHT31;58740;50.672;18.690;2023-02-14T14:13:54;5.65;74.43
71082;SHT31;58740;50.672;18.690;2023-02-14T14:16:32;5.64;74.57
71082;SHT31;58740;50.672;18.690;2023-02-14T14:19:49;5.63;74.46
71082;SHT31;58740;50.672;18.690;2023-02-14T14:24:37;5.63;74.77
71082;SHT31;58740;50.672;18.690;2023-02-14T14:29:45;5.67;74.69
71082;SHT31;58740;50.672;18.690;2023-02-14T14:35:00;5.71;74.45
71082;SHT31;58740;50.672;18.690;2023-02-14T14:37:47;5.72;74.30
71082;SHT31;58740;50.672;18.690;2023-02-14T14:40:24;5.73;74.39
71082;SHT31;58740;50.672;18.690;2023-02-14T14:43:10;5.70;74.27
71082;SHT31;58740;50.672;18.690;2023-02-14T14:45:44;5.66;74.19
71082;SHT31;58740;50.672;18.690;2023-02-14T14:48:36;5.63;74.31
71082;SHT31;58740;50.672;18.690;2023-02-14T14:51:14;5.61;74.22
71082;SHT31;58740;50.672;18.690;2023-02-14T14:54:01;5.60;74.40
71082;SHT31;58740;50.672;18.690;2023-02-14T14:56:48;5.61;74.44
71082;SHT31;58740;50.672;18.690;2023-02-14T15:01:56;5.63;74.41
71082;SHT31;58740;50.672;18.690;2023-02-14T15:04:26;5.62;74.47
71082;SHT31;58740;50.672;18.690;2023-02-14T15:09:57;5.57;74.46
71082;SHT31;58740;50.672;18.690;2023-02-14T15:12:26;5.54;74.58
71082;SHT31;58740;50.672;18.690;2023-02-14T15:15:15;5.51;74.36
71082;SHT31;58740;50.672;18.690;2023-02-14T15:17:45;5.48;74.40
71082;SHT31;58740;50.672;18.690;2023-02-14T15:20:15;5.48;74.58
71082;SHT31;58740;50.672;18.690;2023-02-14T15:22:48;5.51;74.70
71082;SHT31;58740;50.672;18.690;2023-02-14T15:25:20;5.53;74.76
71082;SHT31;58740;50.672;18.690;2023-02-14T15:27:53;5.55;74.81
71082;SHT31;58740;50.672;18.690;2023-02-14T15:30:26;5.55;74.80
71082;SHT31;58740;50.672;18.690;2023-02-14T15:33:01;5.53;74.80
71082;SHT31;58740;50.672;18.690;2023-02-14T15:35:32;5.50;74.73
71082;SHT31;58740;50.672;18.690;2023-02-14T15:38:04;5.47;74.82
71082;SHT31;58740;50.672;18.690;2023-02-14T15:40:35;5.44;74.57
71082;SHT31;58740;50.672;18.690;2023-02-14T15:43:20;5.41;74.53
71082;SHT31;58740;50.672;18.690;2023-02-14T15:46:13;5.41;74.67
71082;SHT31;58740;50.672;18.690;2023-02-14T15:48:48;5.42;74.61
71082;SHT31;58740;50.672;18.690;2023-02-14T15:51:23;5.44;74.70
71082;SHT31;58740;50.672;18.690;2023-02-14T15:53:59;5.45;74.76
71082;SHT31;58740;50.672;18.690;2023-02-14T15:56:32;5.45;74.68
71082;SHT31;58740;50.672;18.690;2023-02-14T15:59:26;5.44;74.75
71082;SHT31;58740;50.672;18.690;2023-02-14T16:04:31;5.37;74.55
71082;SHT31;58740;50.672;18.690;2023-02-14T16:07:22;5.34;74.77
71082;SHT31;58740;50.672;18.690;2023-02-14T16:12:57;5.27;74.82
71082;SHT31;58740;50.672;18.690;2023-02-14T16:15:56;5.26;74.69
71082;SHT31;58740;50.672;18.690;2023-02-14T16:18:34;5.28;74.69
71082;SHT31;58740;50.672;18.690;2023-02-14T16:23:41;5.32;74.65
71082;SHT31;58740;50.672;18.690;2023-02-14T16:26:12;5.32;74.68
71082;SHT31;58740;50.672;18.690;2023-02-14T16:28:41;5.30;74.55
71082;SHT31;58740;50.672;18.690;2023-02-14T16:31:11;5.28;74.61
71082;SHT31;58740;50.672;18.690;2023-02-14T16:33:42;5.26;74.72
71082;SHT31;58740;50.672;18.690;2023-02-14T16:36:18;5.23;74.85
71082;SHT31;58740;50.672;18.690;2023-02-14T16:38:53;5.23;75.00
71082;SHT31;58740;50.672;18.690;2023-02-14T16:41:23;5.22;75.02
71082;SHT31;58740;50.672;18.690;2023-02-14T16:43:54;5.21;75.12
71082;SHT31;58740;50.672;18.690;2023-02-14T16:46:30;5.22;75.07
71082;SHT31;58740;50.672;18.690;2023-02-14T16:49:01;5.23;75.07
71082;SHT31;58740;50.672;18.690;2023-02-14T16:51:33;5.24;75.13
71082;SHT31;58740;50.672;18.690;2023-02-14T16:54:04;5.24;74.92
71082;SHT31;58740;50.672;18.690;2023-02-14T16:59:29;5.20;74.78
71082;SHT31;58740;50.672;18.690;2023-02-14T17:01:57;5.18;74.66
71082;SHT31;58740;50.672;18.690;2023-02-14T17:04:25;5.16;74.71
71082;SHT31;58740;50.672;18.690;2023-02-14T17:06:54;5.13;74.56
71082;SHT31;58740;50.672;18.690;2023-02-14T17:09:24;5.12;74.56
71082;SHT31;58740;50.672;18.690;2023-02-14T17:11:57;5.12;74.71
71082;SHT31;58740;50.672;18.690;2023-02-14T17:14:33;5.14;74.71
71082;SHT31;58740;50.672;18.690;2023-02-14T17:17:05;5.16;74.75
71082;SHT31;58740;50.672;18.690;2023-02-14T17:19:33;5.19;74.66
71082;SHT31;58740;50.672;18.690;2023-02-14T17:22:01;5.19;74.68
71082;SHT31;58740;50.672;18.690;2023-02-14T17:24:30;5.20;74.62
71082;SHT31;58740;50.672;18.690;2023-02-14T17:26:58;5.20;74.44
71082;SHT31;58740;50.672;18.690;2023-02-14T17:29:26;5.17;74.51
71082;SHT31;58740;50.672;18.690;2023-02-14T17:31:54;5.15;74.67
71082;SHT31;58740;50.672;18.690;2023-02-14T17:34:22;5.13;74.57
71082;SHT31;58740;50.672;18.690;2023-02-14T17:36:49;5.11;74.63
71082;SHT31;58740;50.672;18.690;2023-02-14T17:39:18;5.09;74.69
71082;SHT31;58740;50.672;18.690;2023-02-14T17:41:46;5.08;74.69
71082;SHT31;58740;50.672;18.690;2023-02-14T17:44:14;5.08;74.70
71082;SHT31;58740;50.672;18.690;2023-02-14T17:46:42;5.09;74.62
71082;SHT31;58740;50.672;18.690;2023-02-14T17:49:10;5.10;74.77
71082;SHT31;58740;50.672;18.690;2023-02-14T17:51:38;5.11;74.77
71082;SHT31;58740;50.672;18.690;2023-02-14T17:54:06;5.11;74.81
71082;SHT31;58740;50.672;18.690;2023-02-14T17:56:34;5.10;74.82
71082;SHT31;58740;50.672;18.690;2023-02-14T17:59:01;5.08;74.62
71082;SHT31;58740;50.672;18.690;2023-02-14T18:01:29;5.05;74.67
71082;SHT31;58740;50.672;18.690;2023-02-14T18:04:02;5.02;74.81
71082;SHT31;58740;50.672;18.690;2023-02-14T18:06:32;5.01;74.90
71082;SHT31;58740;50.672;18.690;2023-02-14T18:09:02;4.99;74.81
71082;SHT31;58740;50.672;18.690;2023-02-14T18:11:32;4.98;74.78
71082;SHT31;58740;50.672;18.690;2023-02-14T18:14:00;4.99;74.83
71082;SHT31;58740;50.672;18.690;2023-02-14T18:16:28;5.01;74.80
71082;SHT31;58740;50.672;18.690;2023-02-14T18:18:56;5.01;74.79
71082;SHT31;58740;50.672;18.690;2023-02-14T18:21:23;5.00;74.77
71082;SHT31;58740;50.672;18.690;2023-02-14T18:23:51;5.01;74.78
71082;SHT31;58740;50.672;18.690;2023-02-14T18:26:19;4.98;74.66
71082;SHT31;58740;50.672;18.690;2023-02-14T18:28:47;4.97;74.62
71082;SHT31;58740;50.672;18.690;2023-02-14T18:31:17;4.94;74.66
71082;SHT31;58740;50.672;18.690;2023-02-14T18:33:47;4.91;74.63
71082;SHT31;58740;50.672;18.690;2023-02-14T18:36:18;4.91;74.74
71082;SHT31;58740;50.672;18.690;2023-02-14T18:38:50;4.93;74.72
71082;SHT31;58740;50.672;18.690;2023-02-14T18:41:18;4.97;74.77